Terminal Aerodrome Forecast
Issued by NWS

Home | Current Version | Previous Version | Text Only | Print | Product List | Glossary Off
Versions: 1 2 3 4 5 6 7 8 9 10 11 12 13 14 15 16 17 18 19

000
FTUS43 KTOP 290520
TAFFOE
TAF
KFOE 290520Z 2906/3006 12003KT P6SM SCT100 BKN250
     FM291900 14006KT P6SM VCTS SCT050CB
     FM300100 09004KT P6SM SCT100=

USA.gov is the U.S. government's official web portal to all federal, state and local government web resources and services.